sensor_id;sensor_type;location;lat;lon;timestamp;pressure;altitude;pressure_sealevel;temperature;humidity
72465;BME280;60471;52.150;4.508;2023-12-28T00:01:42;100403.41;;;11.65;100.00
72465;BME280;60471;52.150;4.508;2023-12-28T00:04:08;100431.97;;;11.58;100.00
72465;BME280;60471;52.150;4.508;2023-12-28T00:06:35;100477.13;;;11.70;100.00
72465;BME280;60471;52.150;4.508;2023-12-28T00:09:01;100467.41;;;11.70;100.00
72465;BME280;60471;52.150;4.508;2023-12-28T00:11:27;100431.84;;;11.76;100.00
72465;BME280;60471;52.150;4.508;2023-12-28T00:13:53;100458.19;;;11.77;100.00
72465;BME280;60471;52.150;4.508;2023-12-28T00:16:20;100446.09;;;11.73;100.00
72465;BME280;60471;52.150;4.508;2023-12-28T00:18:46;100422.66;;;11.67;100.00
72465;BME280;60471;52.150;4.508;2023-12-28T00:21:12;100422.25;;;11.59;100.00
72465;BME280;60471;52.150;4.508;2023-12-28T00:23:38;100444.72;;;11.52;100.00
72465;BME280;60471;52.150;4.508;2023-12-28T00:26:04;100424.69;;;11.48;100.00
72465;BME280;60471;52.150;4.508;2023-12-28T00:28:31;100398.63;;;11.42;100.00
72465;BME280;60471;52.150;4.508;2023-12-28T00:30:57;100419.84;;;11.40;100.00
72465;BME280;60471;52.150;4.508;2023-12-28T00:33:23;100450.97;;;11.35;100.00
72465;BME280;60471;52.150;4.508;2023-12-28T00:35:49;100435.09;;;11.35;100.00
72465;BME280;60471;52.150;4.508;2023-12-28T00:38:15;100415.25;;;11.28;100.00
72465;BME280;60471;52.150;4.508;2023-12-28T00:40:42;100403.00;;;11.27;100.00
72465;BME280;60471;52.150;4.508;2023-12-28T00:43:08;100428.47;;;11.28;100.00
72465;BME280;60471;52.150;4.508;2023-12-28T00:45:34;100454.41;;;11.21;100.00
72465;BME280;60471;52.150;4.508;2023-12-28T00:48:00;100450.38;;;11.14;100.00
72465;BME280;60471;52.150;4.508;2023-12-28T00:50:27;100457.53;;;11.28;100.00
72465;BME280;60471;52.150;4.508;2023-12-28T00:52:57;100419.63;;;11.29;100.00
72465;BME280;60471;52.150;4.508;2023-12-28T00:55:23;100424.97;;;11.27;100.00
72465;BME280;60471;52.150;4.508;2023-12-28T00:57:50;100411.28;;;11.21;100.00
72465;BME280;60471;52.150;4.508;2023-12-28T01:00:16;100443.50;;;11.12;100.00
72465;BME280;60471;52.150;4.508;2023-12-28T01:02:42;100409.75;;;11.17;100.00
72465;BME280;60471;52.150;4.508;2023-12-28T01:05:09;100468.44;;;11.06;100.00
72465;BME280;60471;52.150;4.508;2023-12-28T01:07:35;100389.00;;;11.11;100.00
72465;BME280;60471;52.150;4.508;2023-12-28T01:10:01;100411.66;;;10.99;100.00
72465;BME280;60471;52.150;4.508;2023-12-28T01:12:27;100422.78;;;11.04;100.00
72465;BME280;60471;52.150;4.508;2023-12-28T01:14:54;100422.22;;;10.99;100.00
72465;BME280;60471;52.150;4.508;2023-12-28T01:17:20;100424.34;;;10.92;100.00
72465;BME280;60471;52.150;4.508;2023-12-28T01:19:46;100425.94;;;10.95;100.00
72465;BME280;60471;52.150;4.508;2023-12-28T01:22:12;100407.31;;;10.98;100.00
72465;BME280;60471;52.150;4.508;2023-12-28T01:24:39;100442.91;;;10.91;100.00
72465;BME280;60471;52.150;4.508;2023-12-28T01:27:05;100421.38;;;10.98;100.00
72465;BME280;60471;52.150;4.508;2023-12-28T01:29:31;100453.47;;;10.91;100.00
72465;BME280;60471;52.150;4.508;2023-12-28T01:31:58;100434.66;;;10.97;100.00
72465;BME280;60471;52.150;4.508;2023-12-28T01:34:24;100406.63;;;10.94;100.00
72465;BME280;60471;52.150;4.508;2023-12-28T01:36:51;100390.13;;;10.91;100.00
72465;BME280;60471;52.150;4.508;2023-12-28T01:39:17;100409.34;;;10.93;100.00
72465;BME280;60471;52.150;4.508;2023-12-28T01:41:44;100417.53;;;10.88;100.00
72465;BME280;60471;52.150;4.508;2023-12-28T01:44:11;100441.28;;;10.88;100.00
72465;BME280;60471;52.150;4.508;2023-12-28T01:46:37;100466.31;;;10.81;100.00
72465;BME280;60471;52.150;4.508;2023-12-28T01:49:04;100455.56;;;10.84;100.00
72465;BME280;60471;52.150;4.508;2023-12-28T01:51:31;100455.16;;;10.76;100.00
72465;BME280;60471;52.150;4.508;2023-12-28T01:53:59;100438.97;;;10.82;100.00
72465;BME280;60471;52.150;4.508;2023-12-28T01:56:26;100461.22;;;10.78;100.00
72465;BME280;60471;52.150;4.508;2023-12-28T01:58:53;100445.09;;;10.83;100.00
72465;BME280;60471;52.150;4.508;2023-12-28T02:01:20;100505.81;;;10.83;100.00
72465;BME280;60471;52.150;4.508;2023-12-28T02:03:46;100442.22;;;10.87;100.00
72465;BME280;60471;52.150;4.508;2023-12-28T02:06:13;100436.44;;;10.81;100.00
72465;BME280;60471;52.150;4.508;2023-12-28T02:08:43;100434.41;;;10.86;100.00
72465;BME280;60471;52.150;4.508;2023-12-28T02:11:09;100435.75;;;10.93;100.00
72465;BME280;60471;52.150;4.508;2023-12-28T02:13:36;100432.75;;;10.83;100.00
72465;BME280;60471;52.150;4.508;2023-12-28T02:16:32;100454.16;;;10.79;100.00
72465;BME280;60471;52.150;4.508;2023-12-28T02:19:47;100460.19;;;10.81;100.00
72465;BME280;60471;52.150;4.508;2023-12-28T02:22:08;100445.78;;;10.70;100.00
72465;BME280;60471;52.150;4.508;2023-12-28T02:27:36;100429.09;;;10.70;100.00
72465;BME280;60471;52.150;4.508;2023-12-28T02:30:06;100429.38;;;10.81;100.00
72465;BME280;60471;52.150;4.508;2023-12-28T02:38:02;100430.81;;;10.87;100.00
72465;BME280;60471;52.150;4.508;2023-12-28T02:40:36;100495.97;;;10.86;100.00
72465;BME280;60471;52.150;4.508;2023-12-28T02:43:10;100482.41;;;10.92;100.00
72465;BME280;60471;52.150;4.508;2023-12-28T02:45:38;100429.88;;;10.88;100.00
72465;BME280;60471;52.150;4.508;2023-12-28T02:48:05;100453.56;;;10.89;100.00
72465;BME280;60471;52.150;4.508;2023-12-28T02:50:32;100477.75;;;10.97;100.00
72465;BME280;60471;52.150;4.508;2023-12-28T02:52:59;100510.41;;;10.95;100.00
72465;BME280;60471;52.150;4.508;2023-12-28T02:55:26;100492.88;;;10.94;100.00
72465;BME280;60471;52.150;4.508;2023-12-28T02:57:54;100454.03;;;10.96;100.00
72465;BME280;60471;52.150;4.508;2023-12-28T03:00:25;100429.69;;;11.07;100.00
72465;BME280;60471;52.150;4.508;2023-12-28T03:02:51;100454.03;;;10.96;100.00
72465;BME280;60471;52.150;4.508;2023-12-28T03:05:19;100432.06;;;10.95;100.00
72465;BME280;60471;52.150;4.508;2023-12-28T03:07:45;100476.47;;;10.89;100.00
72465;BME280;60471;52.150;4.508;2023-12-28T03:10:12;100459.69;;;10.90;100.00
72465;BME280;60471;52.150;4.508;2023-12-28T03:12:38;100454.22;;;10.93;100.00
72465;BME280;60471;52.150;4.508;2023-12-28T03:15:05;100425.28;;;11.07;100.00
72465;BME280;60471;52.150;4.508;2023-12-28T03:17:31;100444.34;;;11.12;100.00
72465;BME280;60471;52.150;4.508;2023-12-28T03:19:58;100434.38;;;11.01;100.00
72465;BME280;60471;52.150;4.508;2023-12-28T03:22:25;100416.31;;;10.94;100.00
72465;BME280;60471;52.150;4.508;2023-12-28T03:24:51;100437.63;;;10.91;100.00
72465;BME280;60471;52.150;4.508;2023-12-28T03:27:18;100445.09;;;10.83;100.00
72465;BME280;60471;52.150;4.508;2023-12-28T03:29:44;100417.53;;;10.88;100.00
72465;BME280;60471;52.150;4.508;2023-12-28T03:32:10;100424.75;;;10.85;100.00
72465;BME280;60471;52.150;4.508;2023-12-28T03:34:37;100415.66;;;10.90;100.00
72465;BME280;60471;52.150;4.508;2023-12-28T03:37:03;100406.97;;;10.88;100.00
72465;BME280;60471;52.150;4.508;2023-12-28T03:39:29;100406.03;;;10.89;100.00
72465;BME280;60471;52.150;4.508;2023-12-28T03:41:56;100426.53;;;10.84;100.00
72465;BME280;60471;52.150;4.508;2023-12-28T03:44:22;100460.09;;;10.82;100.00
72465;BME280;60471;52.150;4.508;2023-12-28T03:46:49;100413.59;;;10.95;100.00
72465;BME280;60471;52.150;4.508;2023-12-28T03:49:20;100432.94;;;10.96;100.00
72465;BME280;60471;52.150;4.508;2023-12-28T03:51:49;100404.06;;;10.93;100.00
72465;BME280;60471;52.150;4.508;2023-12-28T03:54:16;100431.06;;;10.98;100.00
72465;BME280;60471;52.150;4.508;2023-12-28T03:56:44;100470.69;;;10.98;100.00
72465;BME280;60471;52.150;4.508;2023-12-28T03:59:11;100416.34;;;11.10;100.00
72465;BME280;60471;52.150;4.508;2023-12-28T04:01:37;100398.09;;;11.05;100.00
72465;BME280;60471;52.150;4.508;2023-12-28T04:04:04;100427.84;;;11.09;100.00
72465;BME280;60471;52.150;4.508;2023-12-28T04:06:30;100422.47;;;11.10;100.00
72465;BME280;60471;52.150;4.508;2023-12-28T04:08:56;100453.38;;;11.08;100.00
72465;BME280;60471;52.150;4.508;2023-12-28T04:11:23;100461.97;;;11.12;100.00
72465;BME280;60471;52.150;4.508;2023-12-28T04:13:49;100427.94;;;11.07;100.00
72465;BME280;60471;52.150;4.508;2023-12-28T04:16:16;100402.84;;;11.14;100.00
72465;BME280;60471;52.150;4.508;2023-12-28T04:18:42;100448.78;;;11.12;100.00
72465;BME280;60471;52.150;4.508;2023-12-28T04:21:10;100473.66;;;11.08;100.00
72465;BME280;60471;52.150;4.508;2023-12-28T04:23:38;100482.06;;;11.14;100.00
72465;BME280;60471;52.150;4.508;2023-12-28T04:26:05;100429.88;;;11.19;100.00
72465;BME280;60471;52.150;4.508;2023-12-28T04:28:32;100442.47;;;11.14;100.00
72465;BME280;60471;52.150;4.508;2023-12-28T04:31:04;100529.28;;;11.20;100.00
72465;BME280;60471;52.150;4.508;2023-12-28T04:33:31;100417.56;;;11.34;100.00
72465;BME280;60471;52.150;4.508;2023-12-28T04:36:02;100443.91;;;11.20;100.00
72465;BME280;60471;52.150;4.508;2023-12-28T04:38:30;100453.28;;;11.25;100.00
72465;BME280;60471;52.150;4.508;2023-12-28T04:40:58;100432.56;;;11.33;100.00
72465;BME280;60471;52.150;4.508;2023-12-28T04:43:25;100486.41;;;11.31;100.00
72465;BME280;60471;52.150;4.508;2023-12-28T04:45:52;100448.50;;;11.32;100.00
72465;BME280;60471;52.150;4.508;2023-12-28T04:48:18;100450.88;;;11.37;100.00
72465;BME280;60471;52.150;4.508;2023-12-28T04:50:50;100434.69;;;11.27;100.00
72465;BME280;60471;52.150;4.508;2023-12-28T04:53:16;100469.53;;;11.33;100.00
72465;BME280;60471;52.150;4.508;2023-12-28T04:55:42;100445.34;;;11.41;100.00
72465;BME280;60471;52.150;4.508;2023-12-28T04:58:10;100433.97;;;11.39;100.00
72465;BME280;60471;52.150;4.508;2023-12-28T05:00:38;100524.25;;;11.31;100.00
72465;BME280;60471;52.150;4.508;2023-12-28T05:03:04;100420.88;;;11.38;100.00
72465;BME280;60471;52.150;4.508;2023-12-28T05:05:30;100474.81;;;11.33;100.00
72465;BME280;60471;52.150;4.508;2023-12-28T05:07:57;100477.19;;;11.38;100.00
72465;BME280;60471;52.150;4.508;2023-12-28T05:10:23;100456.84;;;11.40;100.00
72465;BME280;60471;52.150;4.508;2023-12-28T05:12:49;100424.34;;;11.38;100.00
72465;BME280;60471;52.150;4.508;2023-12-28T05:15:15;100437.66;;;11.37;100.00
72465;BME280;60471;52.150;4.508;2023-12-28T05:17:42;100444.63;;;11.38;100.00
72465;BME280;60471;52.150;4.508;2023-12-28T05:20:09;100440.22;;;11.38;100.00
72465;BME280;60471;52.150;4.508;2023-12-28T05:22:36;100453.66;;;11.49;100.00
72465;BME280;60471;52.150;4.508;2023-12-28T05:25:02;100501.91;;;11.37;100.00
72465;BME280;60471;52.150;4.508;2023-12-28T05:27:29;100443.25;;;11.46;100.00
72465;BME280;60471;52.150;4.508;2023-12-28T05:29:55;100426.84;;;11.41;100.00
72465;BME280;60471;52.150;4.508;2023-12-28T05:32:21;100438.94;;;11.45;100.00
72465;BME280;60471;52.150;4.508;2023-12-28T05:34:48;100418.13;;;11.39;100.00
72465;BME280;60471;52.150;4.508;2023-12-28T05:37:16;100430.69;;;11.36;100.00
72465;BME280;60471;52.150;4.508;2023-12-28T05:39:42;100437.41;;;11.41;100.00
72465;BME280;60471;52.150;4.508;2023-12-28T05:42:08;100441.06;;;11.39;100.00
72465;BME280;60471;52.150;4.508;2023-12-28T05:44:34;100427.09;;;11.37;100.00
72465;BME280;60471;52.150;4.508;2023-12-28T05:47:00;100398.72;;;11.40;100.00
72465;BME280;60471;52.150;4.508;2023-12-28T05:49:27;100485.72;;;11.43;100.00
72465;BME280;60471;52.150;4.508;2023-12-28T05:51:54;100487.59;;;11.41;100.00
72465;BME280;60471;52.150;4.508;2023-12-28T05:54:20;100465.44;;;11.44;100.00
72465;BME280;60471;52.150;4.508;2023-12-28T05:56:46;100505.91;;;11.44;100.00
72465;BME280;60471;52.150;4.508;2023-12-28T05:59:13;100429.50;;;11.41;100.00
72465;BME280;60471;52.150;4.508;2023-12-28T06:01:43;100446.09;;;11.43;100.00
72465;BME280;60471;52.150;4.508;2023-12-28T06:04:09;100488.84;;;11.50;100.00
72465;BME280;60471;52.150;4.508;2023-12-28T06:06:36;100504.03;;;11.46;100.00
72465;BME280;60471;52.150;4.508;2023-12-28T06:09:03;100442.50;;;11.44;100.00
72465;BME280;60471;52.150;4.508;2023-12-28T06:11:29;100483.94;;;11.44;100.00
72465;BME280;60471;52.150;4.508;2023-12-28T06:13:56;100493.97;;;11.53;100.00
72465;BME280;60471;52.150;4.508;2023-12-28T06:16:22;100527.56;;;11.51;100.00
72465;BME280;60471;52.150;4.508;2023-12-28T06:18:48;100558.38;;;11.50;100.00
72465;BME280;60471;52.150;4.508;2023-12-28T06:21:15;100464.16;;;11.51;100.00
72465;BME280;60471;52.150;4.508;2023-12-28T06:23:41;100481.16;;;11.61;100.00
72465;BME280;60471;52.150;4.508;2023-12-28T06:26:07;100472.47;;;11.59;100.00
72465;BME280;60471;52.150;4.508;2023-12-28T06:28:33;100520.31;;;11.54;100.00
72465;BME280;60471;52.150;4.508;2023-12-28T06:31:00;100485.88;;;11.56;100.00
72465;BME280;60471;52.150;4.508;2023-12-28T06:33:27;100467.03;;;11.62;100.00
72465;BME280;60471;52.150;4.508;2023-12-28T06:35:56;100497.47;;;11.53;100.00
72465;BME280;60471;52.150;4.508;2023-12-28T06:38:25;100468.22;;;11.56;100.00
72465;BME280;60471;52.150;4.508;2023-12-28T06:40:51;100505.03;;;11.59;100.00
72465;BME280;60471;52.150;4.508;2023-12-28T06:43:18;100568.38;;;11.45;100.00
72465;BME280;60471;52.150;4.508;2023-12-28T06:45:44;100515.44;;;11.47;100.00
72465;BME280;60471;52.150;4.508;2023-12-28T06:48:10;100474.31;;;11.43;100.00
72465;BME280;60471;52.150;4.508;2023-12-28T06:50:36;100523.88;;;11.38;100.00
72465;BME280;60471;52.150;4.508;2023-12-28T06:53:03;100500.13;;;11.38;100.00
72465;BME280;60471;52.150;4.508;2023-12-28T06:55:29;100542.53;;;11.50;100.00
72465;BME280;60471;52.150;4.508;2023-12-28T06:57:55;100487.59;;;11.41;100.00
72465;BME280;60471;52.150;4.508;2023-12-28T07:00:22;100501.75;;;11.40;100.00
72465;BME280;60471;52.150;4.508;2023-12-28T07:02:48;100516.56;;;11.43;100.00
72465;BME280;60471;52.150;4.508;2023-12-28T07:05:14;100477.19;;;11.38;100.00
72465;BME280;60471;52.150;4.508;2023-12-28T07:07:40;100503.03;;;11.33;100.00
72465;BME280;60471;52.150;4.508;2023-12-28T07:10:07;100486.16;;;11.36;100.00
72465;BME280;60471;52.150;4.508;2023-12-28T07:12:33;100511.03;;;11.31;100.00
72465;BME280;60471;52.150;4.508;2023-12-28T07:15:00;100506.34;;;11.37;100.00
72465;BME280;60471;52.150;4.508;2023-12-28T07:17:26;100526.53;;;11.38;100.00
72465;BME280;60471;52.150;4.508;2023-12-28T07:19:52;100553.03;;;11.36;100.00
72465;BME280;60471;52.150;4.508;2023-12-28T07:22:18;100540.00;;;11.33;100.00
72465;BME280;60471;52.150;4.508;2023-12-28T07:24:45;100483.31;;;11.39;100.00
72465;BME280;60471;52.150;4.508;2023-12-28T07:27:11;100548.16;;;11.28;100.00
72465;BME280;60471;52.150;4.508;2023-12-28T07:29:37;100520.06;;;11.27;100.00
72465;BME280;60471;52.150;4.508;2023-12-28T07:32:04;100587.38;;;11.20;100.00
72465;BME280;60471;52.150;4.508;2023-12-28T07:34:30;100532.41;;;11.11;100.00
